Flugplatz Hameln-Pyrmont

Für EDVW sind keine METAR/TAF Berichte vorhanden.
Es werden die Flugwettermeldungen vom Flugplatz Buckeburg Airport in 37 km Entfernung angezeigt.

Bericht für ETHB

vom 25.08. um 19:20 UTC

Wind 1 kt aus 60°

Sichtweite 10 km oder mehr

gering bewölkt in 8000 ft

Temperatur 25.0°C

Taupunkt 16.0°C

Luftfeuchtigkeit 57%

Luftdruck 1019 hPa

ETHB 251920Z 06001KT 9999 FEW080 25/16 Q1019 BLU+
Keine Prognose (TAF) verfügbar.
Impressum